sensor_id;sensor_type;location;lat;lon;timestamp;temperature;humidity
19536;HTU21D;9913;51.168;4.124;2022-07-25T00:02:23;20.95;80.29
19536;HTU21D;9913;51.168;4.124;2022-07-25T00:04:51;20.86;81.39
19536;HTU21D;9913;51.168;4.124;2022-07-25T00:07:20;20.80;80.56
19536;HTU21D;9913;51.168;4.124;2022-07-25T00:09:48;20.81;81.95
19536;HTU21D;9913;51.168;4.124;2022-07-25T00:12:16;20.76;78.20
19536;HTU21D;9913;51.168;4.124;2022-07-25T00:14:45;20.76;79.18
19536;HTU21D;9913;51.168;4.124;2022-07-25T00:17:14;20.68;77.14
19536;HTU21D;9913;51.168;4.124;2022-07-25T00:19:43;20.56;75.50
19536;HTU21D;9913;51.168;4.124;2022-07-25T00:22:14;20.49;77.83
19536;HTU21D;9913;51.168;4.124;2022-07-25T00:24:42;20.59;79.47
19536;HTU21D;9913;51.168;4.124;2022-07-25T00:27:11;20.55;79.21
19536;HTU21D;9913;51.168;4.124;2022-07-25T00:29:41;20.55;78.47
19536;HTU21D;9913;51.168;4.124;2022-07-25T00:32:10;20.51;78.29
19536;HTU21D;9913;51.168;4.124;2022-07-25T00:34:38;20.54;77.98
19536;HTU21D;9913;51.168;4.124;2022-07-25T00:37:08;20.48;76.44
19536;HTU21D;9913;51.168;4.124;2022-07-25T00:39:36;20.53;78.35
19536;HTU21D;9913;51.168;4.124;2022-07-25T00:42:05;20.48;77.32
19536;HTU21D;9913;51.168;4.124;2022-07-25T00:44:33;20.41;77.36
19536;HTU21D;9913;51.168;4.124;2022-07-25T00:47:01;20.34;75.47
19536;HTU21D;9913;51.168;4.124;2022-07-25T00:49:31;20.37;72.03
19536;HTU21D;9913;51.168;4.124;2022-07-25T00:52:00;20.28;73.99
19536;HTU21D;9913;51.168;4.124;2022-07-25T00:54:30;20.24;74.41
19536;HTU21D;9913;51.168;4.124;2022-07-25T00:56:58;20.24;75.20
19536;HTU21D;9913;51.168;4.124;2022-07-25T00:59:28;20.27;76.24
19536;HTU21D;9913;51.168;4.124;2022-07-25T01:01:56;20.21;74.94
19536;HTU21D;9913;51.168;4.124;2022-07-25T01:04:29;20.24;73.26
19536;HTU21D;9913;51.168;4.124;2022-07-25T01:06:58;20.24;71.48
19536;HTU21D;9913;51.168;4.124;2022-07-25T01:09:27;20.22;72.53
19536;HTU21D;9913;51.168;4.124;2022-07-25T01:11:57;20.27;71.26
19536;HTU21D;9913;51.168;4.124;2022-07-25T01:14:25;20.30;71.60
19536;HTU21D;9913;51.168;4.124;2022-07-25T01:16:53;20.33;72.12
19536;HTU21D;9913;51.168;4.124;2022-07-25T01:19:22;20.33;72.03
19536;HTU21D;9913;51.168;4.124;2022-07-25T01:21:51;20.36;72.32
19536;HTU21D;9913;51.168;4.124;2022-07-25T01:24:21;20.34;71.64
19536;HTU21D;9913;51.168;4.124;2022-07-25T01:26:50;20.36;71.80
19536;HTU21D;9913;51.168;4.124;2022-07-25T01:29:18;20.33;70.86
19536;HTU21D;9913;51.168;4.124;2022-07-25T01:31:47;20.32;70.72
19536;HTU21D;9913;51.168;4.124;2022-07-25T01:34:17;20.31;71.10
19536;HTU21D;9913;51.168;4.124;2022-07-25T01:36:46;20.28;71.75
19536;HTU21D;9913;51.168;4.124;2022-07-25T01:39:15;20.26;73.06
19536;HTU21D;9913;51.168;4.124;2022-07-25T01:41:44;20.26;73.53
19536;HTU21D;9913;51.168;4.124;2022-07-25T01:44:12;20.24;71.71
19536;HTU21D;9913;51.168;4.124;2022-07-25T01:46:40;20.18;72.17
19536;HTU21D;9913;51.168;4.124;2022-07-25T01:49:09;20.09;71.45
19536;HTU21D;9913;51.168;4.124;2022-07-25T01:51:37;20.12;71.71
19536;HTU21D;9913;51.168;4.124;2022-07-25T01:54:06;20.14;72.71
19536;HTU21D;9913;51.168;4.124;2022-07-25T01:56:42;20.13;72.28
19536;HTU21D;9913;51.168;4.124;2022-07-25T01:59:14;20.05;72.29
19536;HTU21D;9913;51.168;4.124;2022-07-25T02:01:43;19.99;70.59
19536;HTU21D;9913;51.168;4.124;2022-07-25T02:04:11;20.02;71.81
19536;HTU21D;9913;51.168;4.124;2022-07-25T02:06:40;20.01;71.02
19536;HTU21D;9913;51.168;4.124;2022-07-25T02:09:08;19.99;71.19
19536;HTU21D;9913;51.168;4.124;2022-07-25T02:11:38;19.96;71.13
19536;HTU21D;9913;51.168;4.124;2022-07-25T02:14:06;19.97;71.69
19536;HTU21D;9913;51.168;4.124;2022-07-25T02:16:35;19.99;72.28
19536;HTU21D;9913;51.168;4.124;2022-07-25T02:19:07;19.97;72.13
19536;HTU21D;9913;51.168;4.124;2022-07-25T02:21:35;19.96;71.01
19536;HTU21D;9913;51.168;4.124;2022-07-25T02:24:04;19.95;70.30
19536;HTU21D;9913;51.168;4.124;2022-07-25T02:26:33;19.90;70.69
19536;HTU21D;9913;51.168;4.124;2022-07-25T02:29:03;19.90;71.33
19536;HTU21D;9913;51.168;4.124;2022-07-25T02:31:32;19.98;71.17
19536;HTU21D;9913;51.168;4.124;2022-07-25T02:34:01;19.97;71.32
19536;HTU21D;9913;51.168;4.124;2022-07-25T02:36:30;19.91;71.49
19536;HTU21D;9913;51.168;4.124;2022-07-25T02:38:58;19.88;70.93
19536;HTU21D;9913;51.168;4.124;2022-07-25T02:41:27;19.84;70.90
19536;HTU21D;9913;51.168;4.124;2022-07-25T02:43:55;19.79;71.25
19536;HTU21D;9913;51.168;4.124;2022-07-25T02:46:25;19.87;70.83
19536;HTU21D;9913;51.168;4.124;2022-07-25T02:48:53;19.77;70.77
19536;HTU21D;9913;51.168;4.124;2022-07-25T02:51:21;19.72;71.00
19536;HTU21D;9913;51.168;4.124;2022-07-25T02:53:51;19.71;70.96
19536;HTU21D;9913;51.168;4.124;2022-07-25T02:56:24;19.59;71.00
19536;HTU21D;9913;51.168;4.124;2022-07-25T02:58:58;19.52;71.42
19536;HTU21D;9913;51.168;4.124;2022-07-25T03:01:28;19.55;71.29
19536;HTU21D;9913;51.168;4.124;2022-07-25T03:03:56;19.51;71.64
19536;HTU21D;9913;51.168;4.124;2022-07-25T03:06:25;19.46;72.06
19536;HTU21D;9913;51.168;4.124;2022-07-25T03:08:53;19.52;72.65
19536;HTU21D;9913;51.168;4.124;2022-07-25T03:11:21;19.53;72.80
19536;HTU21D;9913;51.168;4.124;2022-07-25T03:13:50;19.57;72.51
19536;HTU21D;9913;51.168;4.124;2022-07-25T03:16:21;19.56;73.05
19536;HTU21D;9913;51.168;4.124;2022-07-25T03:18:50;19.56;73.88
19536;HTU21D;9913;51.168;4.124;2022-07-25T03:21:19;19.58;73.73
19536;HTU21D;9913;51.168;4.124;2022-07-25T03:23:47;19.59;73.96
19536;HTU21D;9913;51.168;4.124;2022-07-25T03:26:18;19.58;74.07
19536;HTU21D;9913;51.168;4.124;2022-07-25T03:28:47;19.57;74.57
19536;HTU21D;9913;51.168;4.124;2022-07-25T03:31:15;19.56;74.39
19536;HTU21D;9913;51.168;4.124;2022-07-25T03:33:43;19.55;74.44
19536;HTU21D;9913;51.168;4.124;2022-07-25T03:36:13;19.51;73.79
19536;HTU21D;9913;51.168;4.124;2022-07-25T03:38:41;19.54;73.96
19536;HTU21D;9913;51.168;4.124;2022-07-25T03:41:11;19.47;73.60
19536;HTU21D;9913;51.168;4.124;2022-07-25T03:43:39;19.45;75.33
19536;HTU21D;9913;51.168;4.124;2022-07-25T03:46:07;19.42;75.62
19536;HTU21D;9913;51.168;4.124;2022-07-25T03:48:36;19.35;74.91
19536;HTU21D;9913;51.168;4.124;2022-07-25T03:51:05;19.44;75.96
19536;HTU21D;9913;51.168;4.124;2022-07-25T03:53:35;19.30;75.61
19536;HTU21D;9913;51.168;4.124;2022-07-25T03:56:23;19.32;74.24
19536;HTU21D;9913;51.168;4.124;2022-07-25T03:58:51;19.27;75.60
19536;HTU21D;9913;51.168;4.124;2022-07-25T04:01:20;19.16;76.44
19536;HTU21D;9913;51.168;4.124;2022-07-25T04:03:48;19.16;74.78
19536;HTU21D;9913;51.168;4.124;2022-07-25T04:06:16;19.16;73.36
19536;HTU21D;9913;51.168;4.124;2022-07-25T04:08:46;19.16;73.77
19536;HTU21D;9913;51.168;4.124;2022-07-25T04:11:17;19.09;74.09
19536;HTU21D;9913;51.168;4.124;2022-07-25T04:13:45;19.24;74.31
19536;HTU21D;9913;51.168;4.124;2022-07-25T04:16:14;19.26;77.02
19536;HTU21D;9913;51.168;4.124;2022-07-25T04:18:48;19.28;76.31
19536;HTU21D;9913;51.168;4.124;2022-07-25T04:21:17;19.28;80.24
19536;HTU21D;9913;51.168;4.124;2022-07-25T04:23:47;19.22;76.41
19536;HTU21D;9913;51.168;4.124;2022-07-25T04:26:16;19.20;82.44
19536;HTU21D;9913;51.168;4.124;2022-07-25T04:28:46;19.29;80.20
19536;HTU21D;9913;51.168;4.124;2022-07-25T04:31:15;19.25;76.53
19536;HTU21D;9913;51.168;4.124;2022-07-25T04:33:44;19.22;78.66
19536;HTU21D;9913;51.168;4.124;2022-07-25T04:36:12;19.21;80.80
19536;HTU21D;9913;51.168;4.124;2022-07-25T04:38:40;19.28;82.39
19536;HTU21D;9913;51.168;4.124;2022-07-25T04:41:10;19.40;81.49
19536;HTU21D;9913;51.168;4.124;2022-07-25T04:43:38;19.39;82.33
19536;HTU21D;9913;51.168;4.124;2022-07-25T04:46:17;19.47;82.74
19536;HTU21D;9913;51.168;4.124;2022-07-25T04:48:46;19.47;83.77
19536;HTU21D;9913;51.168;4.124;2022-07-25T04:51:14;19.48;81.90
19536;HTU21D;9913;51.168;4.124;2022-07-25T04:53:43;19.50;77.43
19536;HTU21D;9913;51.168;4.124;2022-07-25T04:56:13;19.35;77.86
19536;HTU21D;9913;51.168;4.124;2022-07-25T04:58:41;19.37;78.79
19536;HTU21D;9913;51.168;4.124;2022-07-25T05:01:10;19.41;76.48
19536;HTU21D;9913;51.168;4.124;2022-07-25T05:03:38;19.48;77.13
19536;HTU21D;9913;51.168;4.124;2022-07-25T05:06:06;19.47;76.21
19536;HTU21D;9913;51.168;4.124;2022-07-25T05:08:35;19.50;77.49
19536;HTU21D;9913;51.168;4.124;2022-07-25T05:11:03;19.47;76.98
19536;HTU21D;9913;51.168;4.124;2022-07-25T05:13:34;19.55;80.59
19536;HTU21D;9913;51.168;4.124;2022-07-25T05:16:02;19.54;77.30
19536;HTU21D;9913;51.168;4.124;2022-07-25T05:18:32;19.59;80.27
19536;HTU21D;9913;51.168;4.124;2022-07-25T05:21:01;19.56;82.03
19536;HTU21D;9913;51.168;4.124;2022-07-25T05:23:29;19.56;78.66
19536;HTU21D;9913;51.168;4.124;2022-07-25T05:25:58;19.59;81.46
19536;HTU21D;9913;51.168;4.124;2022-07-25T05:28:26;19.62;80.49
19536;HTU21D;9913;51.168;4.124;2022-07-25T05:30:56;19.66;80.32
19536;HTU21D;9913;51.168;4.124;2022-07-25T05:33:24;19.72;79.76
19536;HTU21D;9913;51.168;4.124;2022-07-25T05:35:52;19.77;81.30
19536;HTU21D;9913;51.168;4.124;2022-07-25T05:38:21;19.79;81.96
19536;HTU21D;9913;51.168;4.124;2022-07-25T05:40:49;19.91;81.90
19536;HTU21D;9913;51.168;4.124;2022-07-25T05:43:18;19.92;81.32
19536;HTU21D;9913;51.168;4.124;2022-07-25T05:45:46;19.97;83.45
19536;HTU21D;9913;51.168;4.124;2022-07-25T05:48:16;19.94;84.97
19536;HTU21D;9913;51.168;4.124;2022-07-25T05:50:44;19.99;84.58
19536;HTU21D;9913;51.168;4.124;2022-07-25T05:53:13;19.99;82.88
19536;HTU21D;9913;51.168;4.124;2022-07-25T05:55:41;19.96;84.19
19536;HTU21D;9913;51.168;4.124;2022-07-25T05:58:09;19.90;82.55
19536;HTU21D;9913;51.168;4.124;2022-07-25T06:00:38;19.81;80.10
19536;HTU21D;9913;51.168;4.124;2022-07-25T06:03:06;19.83;80.27
19536;HTU21D;9913;51.168;4.124;2022-07-25T06:05:36;19.82;81.72
19536;HTU21D;9913;51.168;4.124;2022-07-25T06:08:05;19.77;78.36
19536;HTU21D;9913;51.168;4.124;2022-07-25T06:10:33;19.79;79.63
19536;HTU21D;9913;51.168;4.124;2022-07-25T06:13:03;19.89;78.27
19536;HTU21D;9913;51.168;4.124;2022-07-25T06:15:33;19.87;79.23
19536;HTU21D;9913;51.168;4.124;2022-07-25T06:18:02;19.76;75.47
19536;HTU21D;9913;51.168;4.124;2022-07-25T06:20:30;19.87;76.98
19536;HTU21D;9913;51.168;4.124;2022-07-25T06:23:00;19.99;77.22
19536;HTU21D;9913;51.168;4.124;2022-07-25T06:25:29;20.06;75.67
19536;HTU21D;9913;51.168;4.124;2022-07-25T06:27:58;20.18;75.82
19536;HTU21D;9913;51.168;4.124;2022-07-25T06:30:27;20.21;76.27
19536;HTU21D;9913;51.168;4.124;2022-07-25T06:32:55;20.28;77.62
19536;HTU21D;9913;51.168;4.124;2022-07-25T06:35:24;20.42;76.75
19536;HTU21D;9913;51.168;4.124;2022-07-25T06:37:52;20.81;79.11
19536;HTU21D;9913;51.168;4.124;2022-07-25T06:40:22;21.00;79.65
19536;HTU21D;9913;51.168;4.124;2022-07-25T06:42:50;21.44;81.88
19536;HTU21D;9913;51.168;4.124;2022-07-25T06:45:20;21.96;84.25
19536;HTU21D;9913;51.168;4.124;2022-07-25T06:47:50;22.21;86.05
19536;HTU21D;9913;51.168;4.124;2022-07-25T06:50:19;22.25;84.74
19536;HTU21D;9913;51.168;4.124;2022-07-25T06:52:47;22.14;85.25
19536;HTU21D;9913;51.168;4.124;2022-07-25T06:55:16;21.97;84.32
19536;HTU21D;9913;51.168;4.124;2022-07-25T06:57:46;21.97;83.39
19536;HTU21D;9913;51.168;4.124;2022-07-25T07:00:14;21.85;85.62
19536;HTU21D;9913;51.168;4.124;2022-07-25T07:02:47;21.77;80.24
19536;HTU21D;9913;51.168;4.124;2022-07-25T07:05:19;21.46;83.18
19536;HTU21D;9913;51.168;4.124;2022-07-25T07:07:48;21.25;81.14
19536;HTU21D;9913;51.168;4.124;2022-07-25T07:10:17;21.23;79.95
19536;HTU21D;9913;51.168;4.124;2022-07-25T07:12:48;21.30;79.17
19536;HTU21D;9913;51.168;4.124;2022-07-25T07:15:17;21.33;81.14
19536;HTU21D;9913;51.168;4.124;2022-07-25T07:17:45;21.59;82.30
19536;HTU21D;9913;51.168;4.124;2022-07-25T07:20:14;21.88;83.47
19536;HTU21D;9913;51.168;4.124;2022-07-25T07:22:43;22.05;86.31
19536;HTU21D;9913;51.168;4.124;2022-07-25T07:25:12;22.09;83.10
19536;HTU21D;9913;51.168;4.124;2022-07-25T07:27:41;22.01;86.86
19536;HTU21D;9913;51.168;4.124;2022-07-25T07:30:12;21.85;85.51
19536;HTU21D;9913;51.168;4.124;2022-07-25T07:32:46;22.06;84.32
19536;HTU21D;9913;51.168;4.124;2022-07-25T07:35:14;21.99;83.04
19536;HTU21D;9913;51.168;4.124;2022-07-25T07:37:45;22.19;86.74
19536;HTU21D;9913;51.168;4.124;2022-07-25T07:40:14;22.83;88.76
19536;HTU21D;9913;51.168;4.124;2022-07-25T07:42:45;23.42;90.89
19536;HTU21D;9913;51.168;4.124;2022-07-25T07:45:17;23.81;92.08
19536;HTU21D;9913;51.168;4.124;2022-07-25T07:47:46;24.11;92.88
19536;HTU21D;9913;51.168;4.124;2022-07-25T07:50:15;23.91;96.96
19536;HTU21D;9913;51.168;4.124;2022-07-25T07:52:44;23.29;90.51
19536;HTU21D;9913;51.168;4.124;2022-07-25T07:55:14;22.75;89.87
19536;HTU21D;9913;51.168;4.124;2022-07-25T07:58:01;21.92;83.94
19536;HTU21D;9913;51.168;4.124;2022-07-25T08:00:30;21.54;84.41
19536;HTU21D;9913;51.168;4.124;2022-07-25T08:03:02;21.48;79.67
19536;HTU21D;9913;51.168;4.124;2022-07-25T08:05:32;21.34;76.53
19536;HTU21D;9913;51.168;4.124;2022-07-25T08:08:01;21.83;77.08
19536;HTU21D;9913;51.168;4.124;2022-07-25T08:10:31;22.06;79.47
19536;HTU21D;9913;51.168;4.124;2022-07-25T08:13:02;22.07;83.88
19536;HTU21D;9913;51.168;4.124;2022-07-25T08:15:32;22.31;83.13
19536;HTU21D;9913;51.168;4.124;2022-07-25T08:18:00;22.41;90.36
19536;HTU21D;9913;51.168;4.124;2022-07-25T08:20:43;22.67;88.96
19536;HTU21D;9913;51.168;4.124;2022-07-25T08:23:12;22.91;89.29
19536;HTU21D;9913;51.168;4.124;2022-07-25T08:25:40;22.64;88.23
19536;HTU21D;9913;51.168;4.124;2022-07-25T08:28:09;22.82;87.98
19536;HTU21D;9913;51.168;4.124;2022-07-25T08:30:40;23.29;93.54
19536;HTU21D;9913;51.168;4.124;2022-07-25T08:33:10;23.83;94.01
19536;HTU21D;9913;51.168;4.124;2022-07-25T08:35:39;24.03;97.01
19536;HTU21D;9913;51.168;4.124;2022-07-25T08:38:12;24.05;99.82
19536;HTU21D;9913;51.168;4.124;2022-07-25T08:40:40;24.19;99.04
19536;HTU21D;9913;51.168;4.124;2022-07-25T08:43:10;24.40;98.27
19536;HTU21D;9913;51.168;4.124;2022-07-25T08:45:44;24.18;100.00
19536;HTU21D;9913;51.168;4.124;2022-07-25T08:48:16;23.85;97.57
19536;HTU21D;9913;51.168;4.124;2022-07-25T08:50:46;23.96;100.40
19536;HTU21D;9913;51.168;4.124;2022-07-25T08:53:15;24.25;101.32
19536;HTU21D;9913;51.168;4.124;2022-07-25T08:56:03;24.48;98.51
19536;HTU21D;9913;51.168;4.124;2022-07-25T08:58:39;24.43;97.87
19536;HTU21D;9913;51.168;4.124;2022-07-25T09:01:11;24.11;97.82
19536;HTU21D;9913;51.168;4.124;2022-07-25T09:03:41;24.21;100.76
19536;HTU21D;9913;51.168;4.124;2022-07-25T09:06:15;24.23;101.36
19536;HTU21D;9913;51.168;4.124;2022-07-25T09:08:53;24.45;99.49
19536;HTU21D;9913;51.168;4.124;2022-07-25T09:11:29;24.62;100.15
19536;HTU21D;9913;51.168;4.124;2022-07-25T09:14:00;24.63;98.17
19536;HTU21D;9913;51.168;4.124;2022-07-25T09:16:35;24.62;99.44
19536;HTU21D;9913;51.168;4.124;2022-07-25T09:19:08;24.36;99.67
19536;HTU21D;9913;51.168;4.124;2022-07-25T09:21:38;24.89;99.66
19536;HTU21D;9913;51.168;4.124;2022-07-25T09:24:12;24.65;98.88
19536;HTU21D;9913;51.168;4.124;2022-07-25T09:26:46;24.53;99.19
19536;HTU21D;9913;51.168;4.124;2022-07-25T09:29:20;25.07;98.82
19536;HTU21D;9913;51.168;4.124;2022-07-25T09:31:50;25.06;98.22
19536;HTU21D;9913;51.168;4.124;2022-07-25T09:34:30;24.58;97.82
19536;HTU21D;9913;51.168;4.124;2022-07-25T09:37:01;24.47;98.88
19536;HTU21D;9913;51.168;4.124;2022-07-25T09:39:39;24.38;99.03
19536;HTU21D;9913;51.168;4.124;2022-07-25T09:42:17;24.80;98.57
19536;HTU21D;9913;51.168;4.124;2022-07-25T09:44:58;24.63;98.13
19536;HTU21D;9913;51.168;4.124;2022-07-25T09:47:28;24.70;97.43
19536;HTU21D;9913;51.168;4.124;2022-07-25T09:49:57;24.66;98.09
19536;HTU21D;9913;51.168;4.124;2022-07-25T09:52:26;24.61;99.75
19536;HTU21D;9913;51.168;4.124;2022-07-25T09:54:55;24.60;98.26
19536;HTU21D;9913;51.168;4.124;2022-07-25T09:57:23;24.28;99.92
19536;HTU21D;9913;51.168;4.124;2022-07-25T09:59:52;23.83;99.58
19536;HTU21D;9913;51.168;4.124;2022-07-25T10:02:31;23.55;100.19
19536;HTU21D;9913;51.168;4.124;2022-07-25T10:05:09;23.69;100.42
19536;HTU21D;9913;51.168;4.124;2022-07-25T10:07:42;23.72;100.86
19536;HTU21D;9913;51.168;4.124;2022-07-25T10:10:21;23.66;99.67
19536;HTU21D;9913;51.168;4.124;2022-07-25T10:13:01;23.92;100.32
19536;HTU21D;9913;51.168;4.124;2022-07-25T10:15:45;23.53;100.65
19536;HTU21D;9913;51.168;4.124;2022-07-25T10:18:17;23.29;99.34
19536;HTU21D;9913;51.168;4.124;2022-07-25T10:20:48;23.27;99.66
19536;HTU21D;9913;51.168;4.124;2022-07-25T10:23:18;23.35;97.97
19536;HTU21D;9913;51.168;4.124;2022-07-25T10:25:58;23.79;99.58
19536;HTU21D;9913;51.168;4.124;2022-07-25T10:28:36;23.80;99.52
19536;HTU21D;9913;51.168;4.124;2022-07-25T10:31:14;24.32;99.12
19536;HTU21D;9913;51.168;4.124;2022-07-25T10:33:49;24.68;97.41
19536;HTU21D;9913;51.168;4.124;2022-07-25T10:36:20;24.11;97.23
19536;HTU21D;9913;51.168;4.124;2022-07-25T10:38:51;23.50;99.38
19536;HTU21D;9913;51.168;4.124;2022-07-25T10:41:22;22.95;99.16
19536;HTU21D;9913;51.168;4.124;2022-07-25T10:43:55;22.70;99.81
19536;HTU21D;9913;51.168;4.124;2022-07-25T10:46:25;22.62;100.99
19536;HTU21D;9913;51.168;4.124;2022-07-25T10:49:02;22.58;100.48
19536;HTU21D;9913;51.168;4.124;2022-07-25T10:51:33;23.08;100.61
19536;HTU21D;9913;51.168;4.124;2022-07-25T10:54:12;23.74;98.84
19536;HTU21D;9913;51.168;4.124;2022-07-25T10:56:54;24.09;98.67
19536;HTU21D;9913;51.168;4.124;2022-07-25T10:59:27;23.92;98.48
19536;HTU21D;9913;51.168;4.124;2022-07-25T11:01:56;24.20;98.87
19536;HTU21D;9913;51.168;4.124;2022-07-25T11:04:26;24.54;98.26
19536;HTU21D;9913;51.168;4.124;2022-07-25T11:06:54;23.96;97.36
19536;HTU21D;9913;51.168;4.124;2022-07-25T11:09:26;24.10;98.88
19536;HTU21D;9913;51.168;4.124;2022-07-25T11:11:56;24.12;98.19
19536;HTU21D;9913;51.168;4.124;2022-07-25T11:14:28;24.08;98.94
19536;HTU21D;9913;51.168;4.124;2022-07-25T11:17:10;24.02;99.85
19536;HTU21D;9913;51.168;4.124;2022-07-25T11:19:42;24.61;97.90
19536;HTU21D;9913;51.168;4.124;2022-07-25T11:22:11;25.36;96.07
19536;HTU21D;9913;51.168;4.124;2022-07-25T11:24:41;25.74;95.81
19536;HTU21D;9913;51.168;4.124;2022-07-25T11:27:11;25.07;93.91
19536;HTU21D;9913;51.168;4.124;2022-07-25T11:29:41;24.51;97.67
19536;HTU21D;9913;51.168;4.124;2022-07-25T11:32:10;24.19;98.80
19536;HTU21D;9913;51.168;4.124;2022-07-25T11:34:42;24.40;96.84
19536;HTU21D;9913;51.168;4.124;2022-07-25T11:37:11;24.20;96.86
19536;HTU21D;9913;51.168;4.124;2022-07-25T11:39:42;23.85;99.14
19536;HTU21D;9913;51.168;4.124;2022-07-25T11:42:14;23.71;99.19
19536;HTU21D;9913;51.168;4.124;2022-07-25T11:44:44;23.88;97.07
19536;HTU21D;9913;51.168;4.124;2022-07-25T11:47:25;24.17;96.09
19536;HTU21D;9913;51.168;4.124;2022-07-25T11:49:57;24.03;96.84
19536;HTU21D;9913;51.168;4.124;2022-07-25T11:52:28;24.04;96.65
19536;HTU21D;9913;51.168;4.124;2022-07-25T11:54:58;24.13;98.23
19536;HTU21D;9913;51.168;4.124;2022-07-25T11:57:28;24.77;97.69
19536;HTU21D;9913;51.168;4.124;2022-07-25T11:59:58;25.62;93.47
19536;HTU21D;9913;51.168;4.124;2022-07-25T12:02:35;25.27;94.78
19536;HTU21D;9913;51.168;4.124;2022-07-25T12:05:07;25.66;94.85
19536;HTU21D;9913;51.168;4.124;2022-07-25T12:07:38;25.92;91.95
19536;HTU21D;9913;51.168;4.124;2022-07-25T12:10:09;25.51;91.68
19536;HTU21D;9913;51.168;4.124;2022-07-25T12:12:47;25.57;89.95
19536;HTU21D;9913;51.168;4.124;2022-07-25T12:15:17;25.75;89.79
19536;HTU21D;9913;51.168;4.124;2022-07-25T12:17:47;26.49;84.19
19536;HTU21D;9913;51.168;4.124;2022-07-25T12:20:18;26.67;84.45
19536;HTU21D;9913;51.168;4.124;2022-07-25T12:22:48;26.23;83.78
19536;HTU21D;9913;51.168;4.124;2022-07-25T12:25:17;25.86;85.71
19536;HTU21D;9913;51.168;4.124;2022-07-25T12:27:46;25.72;87.80
19536;HTU21D;9913;51.168;4.124;2022-07-25T12:30:15;25.78;87.54
19536;HTU21D;9913;51.168;4.124;2022-07-25T12:32:44;25.93;86.67
19536;HTU21D;9913;51.168;4.124;2022-07-25T12:35:12;26.33;84.37
19536;HTU21D;9913;51.168;4.124;2022-07-25T12:37:43;26.48;86.32
19536;HTU21D;9913;51.168;4.124;2022-07-25T12:40:12;25.79;85.41
19536;HTU21D;9913;51.168;4.124;2022-07-25T12:42:41;25.01;89.40
19536;HTU21D;9913;51.168;4.124;2022-07-25T12:45:10;24.82;88.06
19536;HTU21D;9913;51.168;4.124;2022-07-25T12:47:39;25.19;88.99
19536;HTU21D;9913;51.168;4.124;2022-07-25T12:50:09;26.57;83.77
19536;HTU21D;9913;51.168;4.124;2022-07-25T12:52:37;26.34;84.37
19536;HTU21D;9913;51.168;4.124;2022-07-25T12:55:10;26.77;84.31
19536;HTU21D;9913;51.168;4.124;2022-07-25T12:57:38;26.60;78.69
19536;HTU21D;9913;51.168;4.124;2022-07-25T13:00:10;25.78;80.91
19536;HTU21D;9913;51.168;4.124;2022-07-25T13:02:39;26.70;81.74
19536;HTU21D;9913;51.168;4.124;2022-07-25T13:05:09;27.44;75.61
19536;HTU21D;9913;51.168;4.124;2022-07-25T13:07:37;26.63;80.30
19536;HTU21D;9913;51.168;4.124;2022-07-25T13:10:08;26.62;78.72
19536;HTU21D;9913;51.168;4.124;2022-07-25T13:12:36;25.69;78.70
19536;HTU21D;9913;51.168;4.124;2022-07-25T13:15:06;25.31;83.22
19536;HTU21D;9913;51.168;4.124;2022-07-25T13:17:34;25.72;81.98
19536;HTU21D;9913;51.168;4.124;2022-07-25T13:20:03;26.41;82.59
19536;HTU21D;9913;51.168;4.124;2022-07-25T13:22:32;25.68;80.80
19536;HTU21D;9913;51.168;4.124;2022-07-25T13:25:01;26.45;80.92
19536;HTU21D;9913;51.168;4.124;2022-07-25T13:27:31;26.78;79.00
19536;HTU21D;9913;51.168;4.124;2022-07-25T13:29:59;26.89;79.42
19536;HTU21D;9913;51.168;4.124;2022-07-25T13:32:28;27.26;79.85
19536;HTU21D;9913;51.168;4.124;2022-07-25T13:34:57;27.81;76.13
19536;HTU21D;9913;51.168;4.124;2022-07-25T13:37:26;27.82;74.92
19536;HTU21D;9913;51.168;4.124;2022-07-25T13:39:55;27.85;75.48
19536;HTU21D;9913;51.168;4.124;2022-07-25T13:42:23;28.01;74.22
19536;HTU21D;9913;51.168;4.124;2022-07-25T13:44:53;27.53;74.86
19536;HTU21D;9913;51.168;4.124;2022-07-25T13:47:22;26.82;73.67
19536;HTU21D;9913;51.168;4.124;2022-07-25T13:49:56;26.24;77.39
19536;HTU21D;9913;51.168;4.124;2022-07-25T13:52:24;26.61;75.88
19536;HTU21D;9913;51.168;4.124;2022-07-25T13:54:52;27.15;77.47
19536;HTU21D;9913;51.168;4.124;2022-07-25T13:57:21;28.13;77.63
19536;HTU21D;9913;51.168;4.124;2022-07-25T13:59:49;27.93;74.23
19536;HTU21D;9913;51.168;4.124;2022-07-25T14:02:19;26.81;77.21
19536;HTU21D;9913;51.168;4.124;2022-07-25T14:04:48;26.52;77.93
19536;HTU21D;9913;51.168;4.124;2022-07-25T14:07:16;25.89;79.58
19536;HTU21D;9913;51.168;4.124;2022-07-25T14:09:44;25.92;77.40
19536;HTU21D;9913;51.168;4.124;2022-07-25T14:12:13;25.62;78.92
19536;HTU21D;9913;51.168;4.124;2022-07-25T14:14:42;25.39;80.20
19536;HTU21D;9913;51.168;4.124;2022-07-25T14:17:10;24.88;79.96
19536;HTU21D;9913;51.168;4.124;2022-07-25T14:19:40;24.73;82.10
19536;HTU21D;9913;51.168;4.124;2022-07-25T14:22:09;25.35;81.30
19536;HTU21D;9913;51.168;4.124;2022-07-25T14:24:37;26.26;81.81
19536;HTU21D;9913;51.168;4.124;2022-07-25T14:27:05;27.80;75.60
19536;HTU21D;9913;51.168;4.124;2022-07-25T14:29:34;25.76;77.89
19536;HTU21D;9913;51.168;4.124;2022-07-25T14:32:04;24.62;82.93
19536;HTU21D;9913;51.168;4.124;2022-07-25T14:34:34;24.58;82.73
19536;HTU21D;9913;51.168;4.124;2022-07-25T14:37:06;24.55;83.73
19536;HTU21D;9913;51.168;4.124;2022-07-25T14:39:34;24.97;81.38
19536;HTU21D;9913;51.168;4.124;2022-07-25T14:42:03;25.15;82.23
19536;HTU21D;9913;51.168;4.124;2022-07-25T14:44:31;25.00;81.39
19536;HTU21D;9913;51.168;4.124;2022-07-25T14:47:03;25.22;81.07
19536;HTU21D;9913;51.168;4.124;2022-07-25T14:49:39;25.03;81.65
19536;HTU21D;9913;51.168;4.124;2022-07-25T14:52:09;24.89;81.65
19536;HTU21D;9913;51.168;4.124;2022-07-25T14:54:38;24.45;81.79
19536;HTU21D;9913;51.168;4.124;2022-07-25T14:57:07;24.19;83.74
19536;HTU21D;9913;51.168;4.124;2022-07-25T14:59:36;24.30;82.69
19536;HTU21D;9913;51.168;4.124;2022-07-25T15:02:04;25.13;81.32
19536;HTU21D;9913;51.168;4.124;2022-07-25T15:04:32;25.17;80.95
19536;HTU21D;9913;51.168;4.124;2022-07-25T15:07:01;24.44;80.90
19536;HTU21D;9913;51.168;4.124;2022-07-25T15:09:31;24.23;82.57
19536;HTU21D;9913;51.168;4.124;2022-07-25T15:11:59;24.94;81.58
19536;HTU21D;9913;51.168;4.124;2022-07-25T15:14:28;24.71;81.35
19536;HTU21D;9913;51.168;4.124;2022-07-25T15:16:56;24.48;80.55
19536;HTU21D;9913;51.168;4.124;2022-07-25T15:19:25;24.54;82.84
19536;HTU21D;9913;51.168;4.124;2022-07-25T15:21:54;24.75;81.17
19536;HTU21D;9913;51.168;4.124;2022-07-25T15:24:22;24.75;82.82
19536;HTU21D;9913;51.168;4.124;2022-07-25T15:26:56;24.25;82.94
19536;HTU21D;9913;51.168;4.124;2022-07-25T15:29:25;23.97;84.26
19536;HTU21D;9913;51.168;4.124;2022-07-25T15:31:54;23.90;86.40
19536;HTU21D;9913;51.168;4.124;2022-07-25T15:34:23;24.05;82.94
19536;HTU21D;9913;51.168;4.124;2022-07-25T15:36:53;23.99;84.91
19536;HTU21D;9913;51.168;4.124;2022-07-25T15:39:22;25.00;84.55
19536;HTU21D;9913;51.168;4.124;2022-07-25T15:41:50;25.20;83.00
19536;HTU21D;9913;51.168;4.124;2022-07-25T15:44:20;24.87;81.83
19536;HTU21D;9913;51.168;4.124;2022-07-25T15:46:48;26.56;80.21
19536;HTU21D;9913;51.168;4.124;2022-07-25T15:49:16;28.19;76.77